Terminal Aerodrome Forecast
Issued by NWS

Home | Current Version | Previous Version | Text Only | Print | Product List | Glossary On
Versions: 1 2 3 4 5 6 7 8 9 10 11 12 13
000
FTAK31 PAJN 242300
TAFAJN
TAF
PAJN 242320Z 2500/2524 VRB06KT P6SM SCT040 OVC060
     FM250400 09005KT P6SM -SN OVC040
     FM250900 09007KT 2SM -SN SCT012 OVC020
     FM251900 09010KT 4SM -SNRA BR OVC015
     FM252100 10010KT P6SM -RA SCT010 OVC020=

USA.gov is the U.S. government's official web portal to all federal, state and local government web resources and services.